Aeroporto :
LOGIN :

Iscrizione | Disclaimer

   EN    FR    IT 

 










Sommario :    VFR   VFR Marginale   IFR   IFR Intensivo   IFR Molto Intensivo
Visibilità : 
Base nubi : 
>= 8 km
>= 3000ft
5 / 8 km
1000 / 3000 ft
1500m / 5 km
500 / 1000 ft
800 / 1500m
200 / 500 ft
< 800m
< 200 ft
Simboli :   Temporali  Nebbia  Neve Forte  Precipitazioni Forti  Vento > 20 kt
SIGMETs :   Varie  Temporali  Ghiacco  Turbolenza  Onda orograficha  Ceneri Vulcaniche






- Altitudine del aeroporto : 353 ft
- Codice IATA : LIN


LIML - Milano Linate

ULTIMO METAR :
  • 200050Z 27007KT CAVOK 11/05 Q1007 NOSIG

METARs OBSOLETI :
  • 200020Z 27007KT CAVOK 12/04 Q1007 NOSIG
  • 192350Z 29007KT CAVOK 12/04 Q1008 NOSIG
  • 192320Z 28005KT 260V320 CAVOK 12/04 Q1008 NOSIG
  • 192250Z 29005KT 260V320 CAVOK 12/04 Q1008 NOSIG
  • 192220Z 30004KT 270V330 CAVOK 12/03 Q1009 NOSIG
  • 192150Z 30005KT 260V330 CAVOK 13/03 Q1009 NOSIG
  • 192120Z 27005KT 230V310 CAVOK 13/03 Q1009 NOSIG
  • 192050Z 29004KT CAVOK 13/03 Q1009 NOSIG
  • 192020Z 27005KT CAVOK 13/02 Q1009 NOSIG

TAF TAF LIML
Valido dal 20 a 00 ore il 21 a 00 ore UTC


192300Z 2000/2024 26005KT CAVOK
BECMG 2006/2008 32012KT
TEMPO 2008/2013 33016G26KT
BECMG 2015/2017 09008KT



MetMap, La meteo Aeronautica in un colpo d'occhio ! - Copyright ORBIFLY Dicembre 2007 - Disclaimer

ORBIFLY MET'MAP TEAM :

Programmazione e sviluppo : Alexandra Zaïnal
Concezione : Baudouin d'Aumeries
Supporto tecnico e logistico : Manuel Goepfert
Aiuto : Marc-Olivier Méhu
Aiuto per la traduzione : Arnaldo La Scala




FONTI E CREDITI :

   NOAA